createdAt,value
2017-08-11T00:01:14.007Z,17.26
2017-08-11T00:03:41.411Z,17.19
2017-08-11T00:06:08.812Z,17.18
2017-08-11T00:08:36.232Z,17.10
2017-08-11T00:11:03.639Z,17.05
2017-08-11T00:13:31.034Z,17.05
2017-08-11T00:15:58.450Z,17.09
2017-08-11T00:18:25.847Z,17.10
2017-08-11T00:20:53.252Z,17.14
2017-08-11T00:23:20.662Z,17.12
2017-08-11T00:25:48.066Z,17.11
2017-08-11T00:28:15.476Z,17.14
2017-08-11T00:30:42.927Z,17.19
2017-08-11T00:33:10.323Z,17.24
2017-08-11T00:35:37.722Z,17.19
2017-08-11T00:38:05.139Z,17.19
2017-08-11T00:40:32.539Z,17.09
2017-08-11T00:42:59.939Z,17.07
2017-08-11T00:45:27.360Z,17.02
2017-08-11T00:47:54.755Z,17.01
2017-08-11T00:50:22.149Z,17.01
2017-08-11T00:52:49.824Z,16.97
2017-08-11T00:55:17.224Z,16.88
2017-08-11T00:57:44.627Z,16.88
2017-08-11T01:00:12.035Z,16.90
2017-08-11T01:02:39.436Z,16.91
2017-08-11T01:05:06.843Z,16.92
2017-08-11T01:07:34.264Z,16.85
2017-08-11T01:10:01.659Z,16.74
2017-08-11T01:12:29.064Z,16.66
2017-08-11T01:14:56.480Z,16.53
2017-08-11T01:17:23.883Z,16.54
2017-08-11T01:19:51.279Z,16.57
2017-08-11T01:22:18.834Z,16.60
2017-08-11T01:24:46.237Z,16.71
2017-08-11T01:27:13.631Z,16.77
2017-08-11T01:29:41.053Z,16.73
2017-08-11T01:32:08.447Z,16.74
2017-08-11T01:34:35.843Z,16.74
2017-08-11T01:37:03.263Z,16.80
2017-08-11T01:39:30.664Z,16.78
2017-08-11T01:41:58.062Z,16.81
2017-08-11T01:44:25.475Z,16.83
2017-08-11T01:46:52.880Z,16.83
2017-08-11T01:49:20.274Z,16.77
2017-08-11T01:51:47.695Z,16.70
2017-08-11T01:54:15.096Z,16.75
2017-08-11T01:56:42.495Z,16.77
2017-08-11T01:59:09.919Z,16.75
2017-08-11T02:01:37.314Z,16.75
2017-08-11T02:04:04.714Z,16.77
2017-08-11T02:06:32.127Z,16.71
2017-08-11T02:08:59.523Z,16.75
2017-08-11T02:11:26.936Z,16.74
2017-08-11T02:13:54.348Z,16.66
2017-08-11T02:16:21.743Z,16.72
2017-08-11T02:18:49.151Z,16.73
2017-08-11T02:21:16.571Z,16.71
2017-08-11T02:23:43.975Z,16.72
2017-08-11T02:26:11.377Z,16.74
2017-08-11T02:28:38.792Z,16.76
2017-08-11T02:31:06.189Z,16.71
2017-08-11T02:33:33.587Z,16.67
2017-08-11T02:36:01.037Z,16.72
2017-08-11T02:38:28.420Z,16.74
2017-08-11T02:40:55.830Z,16.80
2017-08-11T02:43:23.247Z,16.76
2017-08-11T02:45:50.647Z,16.74
2017-08-11T02:48:18.076Z,16.72
2017-08-11T02:50:45.496Z,16.73
2017-08-11T02:53:12.896Z,16.68
2017-08-11T02:55:40.293Z,16.68
2017-08-11T02:58:07.721Z,16.61
2017-08-11T03:00:35.117Z,16.47
2017-08-11T03:03:02.536Z,16.46
2017-08-11T03:05:29.951Z,16.52
2017-08-11T03:07:57.360Z,16.54
2017-08-11T03:10:24.751Z,16.54
2017-08-11T03:12:52.167Z,16.55
2017-08-11T03:15:19.566Z,16.58
2017-08-11T03:17:46.968Z,16.60
2017-08-11T03:20:14.383Z,16.60
2017-08-11T03:22:41.783Z,16.66
2017-08-11T03:25:09.224Z,16.67
2017-08-11T03:27:36.648Z,16.68
2017-08-11T03:30:04.047Z,16.74
2017-08-11T03:32:31.448Z,16.77
2017-08-11T03:34:58.862Z,16.70
2017-08-11T03:37:26.271Z,16.71
2017-08-11T03:39:53.680Z,16.61
2017-08-11T03:42:21.092Z,16.61
2017-08-11T03:44:48.508Z,16.66
2017-08-11T03:47:15.907Z,16.64
2017-08-11T03:49:43.323Z,16.59
2017-08-11T03:52:10.723Z,16.62
2017-08-11T03:54:38.128Z,16.66
2017-08-11T03:57:05.547Z,16.71
2017-08-11T03:59:32.944Z,16.75
2017-08-11T04:02:00.343Z,16.72
2017-08-11T04:04:27.763Z,16.67
2017-08-11T04:06:55.171Z,16.61
2017-08-11T04:09:22.571Z,16.58
2017-08-11T04:11:50.006Z,16.63
2017-08-11T04:14:17.402Z,16.63
2017-08-11T04:16:44.807Z,16.67
2017-08-11T04:19:12.216Z,16.57
2017-08-11T04:21:39.612Z,16.57
2017-08-11T04:24:07.006Z,16.44
2017-08-11T04:26:34.426Z,16.39
2017-08-11T04:29:01.824Z,16.41
2017-08-11T04:31:29.218Z,16.45
2017-08-11T04:33:56.640Z,16.40
2017-08-11T04:36:24.036Z,16.37
2017-08-11T04:38:51.447Z,16.43
2017-08-11T04:41:18.860Z,16.41
2017-08-11T04:43:46.264Z,16.41
2017-08-11T04:46:13.661Z,16.40
2017-08-11T04:48:41.075Z,16.43
2017-08-11T04:51:08.470Z,16.38
2017-08-11T04:53:35.867Z,16.40
2017-08-11T04:56:03.283Z,16.45
2017-08-11T04:58:30.683Z,16.49
2017-08-11T05:00:58.082Z,16.58
2017-08-11T05:03:25.491Z,16.57
2017-08-11T05:05:52.895Z,16.59
2017-08-11T05:08:20.294Z,16.64
2017-08-11T05:10:47.698Z,16.68
2017-08-11T05:13:15.095Z,16.66
2017-08-11T05:15:42.495Z,16.56
2017-08-11T05:18:09.915Z,16.60
2017-08-11T05:20:37.310Z,16.64
2017-08-11T05:23:04.711Z,16.65
2017-08-11T05:25:32.436Z,16.67
2017-08-11T05:27:59.824Z,16.64
2017-08-11T05:30:27.219Z,16.68
2017-08-11T05:32:54.632Z,16.69
2017-08-11T05:35:22.031Z,16.64
2017-08-11T05:37:49.430Z,16.64
2017-08-11T05:40:16.855Z,16.66
2017-08-11T05:42:44.250Z,16.63
2017-08-11T05:45:11.648Z,16.62
2017-08-11T05:47:39.062Z,16.57
2017-08-11T05:50:06.459Z,16.52
2017-08-11T05:52:33.855Z,16.62
2017-08-11T05:55:01.266Z,16.63
2017-08-11T05:57:28.671Z,16.58
2017-08-11T05:59:56.082Z,16.57
2017-08-11T06:02:23.511Z,16.65
2017-08-11T06:04:50.908Z,16.61
2017-08-11T06:07:18.303Z,16.62
2017-08-11T06:09:45.714Z,16.59
2017-08-11T06:12:13.111Z,16.60
2017-08-11T06:14:40.511Z,16.52
2017-08-11T06:17:07.938Z,16.36
2017-08-11T06:19:35.335Z,16.41
2017-08-11T06:22:02.736Z,16.47
2017-08-11T06:24:30.156Z,16.47
2017-08-11T06:26:57.555Z,16.52
2017-08-11T06:29:24.951Z,16.49
2017-08-11T06:31:52.363Z,16.34
2017-08-11T06:34:19.766Z,16.34
2017-08-11T06:36:47.164Z,16.37
2017-08-11T06:39:14.575Z,16.35
2017-08-11T06:41:41.984Z,16.43
2017-08-11T06:44:09.388Z,16.44
2017-08-11T06:46:36.836Z,16.51
2017-08-11T06:49:04.240Z,16.65
2017-08-11T06:51:31.647Z,16.75
2017-08-11T06:53:59.055Z,16.95
2017-08-11T06:56:26.460Z,17.08
2017-08-11T06:58:53.855Z,17.14
2017-08-11T07:01:21.267Z,17.14
2017-08-11T07:03:48.663Z,17.16
2017-08-11T07:06:16.063Z,17.23
2017-08-11T07:08:43.477Z,17.24
2017-08-11T07:11:10.876Z,17.31
2017-08-11T07:13:38.277Z,17.35
2017-08-11T07:16:05.686Z,17.41
2017-08-11T07:18:33.083Z,17.43
2017-08-11T07:21:00.487Z,17.41
2017-08-11T07:23:27.912Z,17.41
2017-08-11T07:25:55.311Z,17.51
2017-08-11T07:28:22.707Z,17.63
2017-08-11T07:30:50.128Z,17.69
2017-08-11T07:33:17.527Z,17.65
2017-08-11T07:35:44.923Z,17.66
2017-08-11T07:38:12.331Z,17.51
2017-08-11T07:40:39.743Z,17.54
2017-08-11T07:43:07.153Z,17.56
2017-08-11T07:45:34.568Z,17.60
2017-08-11T07:48:01.968Z,17.69
2017-08-11T07:50:29.371Z,17.68
2017-08-11T07:52:56.799Z,17.67
2017-08-11T07:55:24.200Z,17.64
2017-08-11T07:57:51.596Z,17.66
2017-08-11T08:00:19.011Z,17.70
2017-08-11T08:02:46.407Z,17.71
2017-08-11T08:05:13.799Z,17.68
2017-08-11T08:07:41.218Z,17.59
2017-08-11T08:10:08.627Z,17.63
2017-08-11T08:12:36.021Z,17.68
2017-08-11T08:15:03.460Z,17.74
2017-08-11T08:17:30.868Z,17.66
2017-08-11T08:19:58.276Z,17.71
2017-08-11T08:22:25.685Z,17.82
2017-08-11T08:24:53.083Z,17.85
2017-08-11T08:27:20.488Z,17.85
2017-08-11T08:29:47.897Z,17.87
2017-08-11T08:32:15.299Z,17.91
2017-08-11T08:34:42.699Z,17.96
2017-08-11T08:37:10.122Z,17.95
2017-08-11T08:39:37.530Z,18.09
2017-08-11T08:42:04.931Z,18.14
2017-08-11T08:44:32.359Z,18.03
2017-08-11T08:46:59.763Z,18.02
2017-08-11T08:49:27.163Z,17.88
2017-08-11T08:51:54.572Z,17.86
2017-08-11T08:54:21.972Z,17.98
2017-08-11T08:56:49.368Z,18.14
2017-08-11T08:59:16.783Z,18.15
2017-08-11T09:01:44.180Z,18.12
2017-08-11T09:04:11.582Z,18.16
2017-08-11T09:06:38.998Z,18.10
2017-08-11T09:09:06.399Z,18.12
2017-08-11T09:11:33.800Z,18.21
2017-08-11T09:14:01.224Z,18.27
2017-08-11T09:16:28.620Z,18.33
2017-08-11T09:18:56.024Z,18.41
2017-08-11T09:21:23.444Z,18.55
2017-08-11T09:23:50.843Z,18.51
2017-08-11T09:26:29.907Z,18.74
2017-08-11T09:29:09.114Z,18.93
2017-08-11T09:31:48.314Z,18.87
2017-08-11T09:34:27.347Z,18.81
2017-08-11T09:36:54.770Z,18.76
2017-08-11T09:39:22.165Z,18.83
2017-08-11T09:41:49.563Z,18.85
2017-08-11T09:44:16.980Z,18.87
2017-08-11T09:46:44.378Z,18.75
2017-08-11T09:49:11.783Z,18.65
2017-08-11T09:51:39.190Z,18.59
2017-08-11T09:54:06.612Z,18.59
2017-08-11T09:56:34.008Z,18.69
2017-08-11T09:59:01.427Z,18.69
2017-08-11T10:01:28.831Z,18.90
2017-08-11T10:03:56.230Z,18.95
2017-08-11T10:06:23.793Z,19.15
2017-08-11T10:08:51.191Z,19.02
2017-08-11T10:11:18.594Z,19.07
2017-08-11T10:13:46.011Z,19.06
2017-08-11T10:16:13.415Z,19.01
2017-08-11T10:18:40.816Z,19.01
2017-08-11T10:21:08.236Z,19.12
2017-08-11T10:23:35.628Z,19.18
2017-08-11T10:26:03.027Z,19.14
2017-08-11T10:28:30.443Z,19.20
2017-08-11T10:30:57.846Z,19.36
2017-08-11T10:33:25.239Z,19.41
2017-08-11T10:35:52.652Z,19.56
2017-08-11T10:38:20.055Z,19.71
2017-08-11T10:40:47.458Z,19.72
2017-08-11T10:43:14.881Z,19.77
2017-08-11T10:45:42.287Z,19.77
2017-08-11T10:48:09.687Z,19.72
2017-08-11T10:50:37.103Z,19.36
2017-08-11T10:53:04.503Z,19.34
2017-08-11T10:55:31.907Z,19.29
2017-08-11T10:57:59.322Z,19.13
2017-08-11T11:00:26.763Z,19.09
2017-08-11T11:02:54.127Z,19.07
2017-08-11T11:05:21.543Z,19.01
2017-08-11T11:07:48.947Z,18.91
2017-08-11T11:10:16.344Z,18.79
2017-08-11T11:12:43.761Z,18.84
2017-08-11T11:15:11.163Z,18.84
2017-08-11T11:17:38.575Z,18.69
2017-08-11T11:20:05.974Z,18.62
2017-08-11T11:22:33.379Z,18.54
2017-08-11T11:25:00.779Z,18.48
2017-08-11T11:27:28.198Z,18.49
2017-08-11T11:29:55.602Z,18.44
2017-08-11T11:32:23.016Z,18.45
2017-08-11T11:34:50.431Z,18.39
2017-08-11T11:37:17.830Z,18.34
2017-08-11T11:39:45.238Z,18.34
2017-08-11T11:42:12.655Z,18.12
2017-08-11T11:44:40.064Z,18.15
2017-08-11T11:47:07.474Z,18.09
2017-08-11T11:49:34.888Z,18.01
2017-08-11T11:52:02.291Z,17.89
2017-08-11T11:54:29.696Z,17.86
2017-08-11T11:56:57.099Z,17.80
2017-08-11T11:59:24.506Z,17.75
2017-08-11T12:01:51.903Z,17.68
2017-08-11T12:04:19.327Z,17.68
2017-08-11T12:06:46.714Z,17.73
2017-08-11T12:09:14.112Z,17.76
2017-08-11T12:11:41.534Z,17.67
2017-08-11T12:14:08.931Z,17.66
2017-08-11T12:16:36.335Z,17.60
2017-08-11T12:19:03.751Z,17.61
2017-08-11T12:21:31.151Z,17.64
2017-08-11T12:23:58.559Z,17.66
2017-08-11T12:26:26.824Z,17.63
2017-08-11T12:28:54.219Z,17.63
2017-08-11T12:31:21.614Z,17.62
2017-08-11T12:33:49.039Z,17.70
2017-08-11T12:36:16.444Z,17.72
2017-08-11T12:38:43.838Z,17.69
2017-08-11T12:41:11.260Z,17.72
2017-08-11T12:43:38.663Z,17.75
2017-08-11T12:46:06.059Z,17.82
2017-08-11T12:48:33.480Z,17.85
2017-08-11T12:51:00.876Z,17.93
2017-08-11T12:53:28.271Z,17.98
2017-08-11T12:55:55.696Z,17.98
2017-08-11T12:58:23.094Z,18.01
2017-08-11T13:00:50.498Z,17.96
2017-08-11T13:03:17.903Z,17.83
2017-08-11T13:05:45.303Z,17.72
2017-08-11T13:08:12.703Z,17.58
2017-08-11T13:10:40.123Z,17.43
2017-08-11T13:13:07.524Z,17.31
2017-08-11T13:15:34.994Z,17.22
2017-08-11T13:18:02.431Z,17.09
2017-08-11T13:20:29.831Z,17.14
2017-08-11T13:22:57.227Z,17.10
2017-08-11T13:25:24.643Z,17.12
2017-08-11T13:27:52.044Z,17.14
2017-08-11T13:30:19.451Z,17.01
2017-08-11T13:32:46.866Z,16.95
2017-08-11T13:35:14.264Z,16.94
2017-08-11T13:37:41.664Z,16.85
2017-08-11T13:40:09.096Z,16.85
2017-08-11T13:42:36.495Z,16.81
2017-08-11T13:45:03.890Z,16.75
2017-08-11T13:47:31.308Z,16.71
2017-08-11T13:49:58.706Z,16.70
2017-08-11T13:52:26.103Z,16.74
2017-08-11T13:54:53.515Z,16.72
2017-08-11T13:57:20.915Z,16.75
2017-08-11T13:59:48.327Z,16.74
2017-08-11T14:02:15.742Z,16.77
2017-08-11T14:04:43.139Z,16.71
2017-08-11T14:07:10.531Z,16.76
2017-08-11T14:09:37.947Z,16.78
2017-08-11T14:12:05.348Z,16.85
2017-08-11T14:14:33.691Z,16.92
2017-08-11T14:17:01.271Z,16.96
2017-08-11T14:19:28.663Z,16.94
2017-08-11T14:21:56.075Z,17.00
2017-08-11T14:24:28.987Z,17.00
2017-08-11T14:26:56.394Z,17.05
2017-08-11T14:29:23.815Z,17.07
2017-08-11T14:31:51.275Z,17.17
2017-08-11T14:34:18.761Z,17.22
2017-08-11T14:36:46.146Z,17.27
2017-08-11T14:39:13.571Z,17.37
2017-08-11T14:41:40.973Z,17.47
2017-08-11T14:44:08.409Z,17.47
2017-08-11T14:46:35.835Z,17.54
2017-08-11T14:49:03.267Z,17.59
2017-08-11T14:51:30.655Z,17.65
2017-08-11T14:53:58.099Z,17.69
2017-08-11T14:56:25.528Z,17.77
2017-08-11T14:58:52.955Z,17.79
2017-08-11T15:01:20.363Z,17.83
2017-08-11T15:03:47.822Z,17.87
2017-08-11T15:06:15.235Z,17.87
2017-08-11T15:08:42.702Z,17.83
2017-08-11T15:11:10.137Z,17.76
2017-08-11T15:13:37.546Z,17.72
2017-08-11T15:16:05.022Z,17.70
2017-08-11T15:18:32.452Z,17.64
2017-08-11T15:20:59.860Z,17.57
2017-08-11T15:23:27.292Z,17.54
2017-08-11T15:25:54.686Z,17.52
2017-08-11T15:28:22.111Z,17.54
2017-08-11T15:30:49.546Z,17.57
2017-08-11T15:33:16.958Z,17.59
2017-08-11T15:35:44.385Z,17.62
2017-08-11T15:38:11.837Z,17.63
2017-08-11T15:40:39.235Z,17.64
2017-08-11T15:43:06.670Z,17.65
2017-08-11T15:45:34.883Z,17.69
2017-08-11T15:48:02.299Z,17.67
2017-08-11T15:50:29.703Z,17.65
2017-08-11T15:52:57.142Z,17.65
2017-08-11T15:55:24.545Z,17.65
2017-08-11T15:57:51.943Z,17.66
2017-08-11T16:00:19.371Z,17.69
2017-08-11T16:02:46.771Z,17.81
2017-08-11T16:05:14.196Z,17.81
2017-08-11T16:07:41.664Z,17.80
2017-08-11T16:10:09.105Z,17.81
2017-08-11T16:12:36.547Z,17.94
2017-08-11T16:15:04.011Z,17.93
2017-08-11T16:17:31.423Z,17.96
2017-08-11T16:19:58.850Z,18.03
2017-08-11T16:22:26.291Z,18.01
2017-08-11T16:24:53.712Z,18.09
2017-08-11T16:27:21.139Z,18.20
2017-08-11T16:29:48.551Z,18.31
2017-08-11T16:32:15.949Z,18.40
2017-08-11T16:34:43.392Z,18.45
2017-08-11T16:37:10.835Z,18.47
2017-08-11T16:39:38.279Z,18.48
2017-08-11T16:42:05.663Z,18.47
2017-08-11T16:44:33.099Z,18.45
2017-08-11T16:47:00.546Z,18.40
2017-08-11T16:49:28.047Z,18.37
2017-08-11T16:51:55.594Z,18.35
2017-08-11T16:54:22.995Z,18.35
2017-08-11T16:56:50.412Z,18.31
2017-08-11T16:59:17.821Z,18.27
2017-08-11T17:01:45.259Z,18.23
2017-08-11T17:04:12.667Z,18.23
2017-08-11T17:06:40.103Z,18.24
2017-08-11T17:09:07.507Z,18.24
2017-08-11T17:11:34.956Z,18.20
2017-08-11T17:14:02.368Z,18.17
2017-08-11T17:16:29.787Z,18.21
2017-08-11T17:18:57.247Z,18.21
2017-08-11T17:21:24.664Z,18.16
2017-08-11T17:23:52.156Z,18.16
2017-08-11T17:26:19.572Z,18.14
2017-08-11T17:28:47.023Z,18.09
2017-08-11T17:31:14.451Z,18.02
2017-08-11T17:33:41.868Z,17.99
2017-08-11T17:36:09.331Z,17.99
2017-08-11T17:38:36.731Z,17.97
2017-08-11T17:41:04.168Z,17.94
2017-08-11T17:43:31.586Z,17.95
2017-08-11T17:45:59.029Z,17.93
2017-08-11T17:48:26.419Z,17.93
2017-08-11T17:50:53.858Z,17.91
2017-08-11T17:53:21.335Z,17.89
2017-08-11T17:55:48.727Z,17.94
2017-08-11T17:58:16.165Z,17.92
2017-08-11T18:00:43.571Z,17.88
2017-08-11T18:03:10.997Z,17.83
2017-08-11T18:05:38.411Z,17.80
2017-08-11T18:08:05.839Z,17.76
2017-08-11T18:10:33.267Z,17.73
2017-08-11T18:13:00.691Z,17.72
2017-08-11T18:15:28.121Z,17.71
2017-08-11T18:17:55.523Z,17.71
2017-08-11T18:20:22.950Z,17.69
2017-08-11T18:22:50.392Z,17.67
2017-08-11T18:25:17.828Z,17.64
2017-08-11T18:27:45.267Z,17.64
2017-08-11T18:30:12.668Z,17.63
2017-08-11T18:32:40.091Z,17.60
2017-08-11T18:35:07.507Z,17.57
2017-08-11T18:37:34.947Z,17.59
2017-08-11T18:40:02.348Z,17.59
2017-08-11T18:42:29.764Z,17.53
2017-08-11T18:44:57.164Z,17.54
2017-08-11T18:47:24.619Z,17.51
2017-08-11T18:49:52.063Z,17.50
2017-08-11T18:52:19.491Z,17.53
2017-08-11T18:54:46.895Z,17.47
2017-08-11T18:57:14.307Z,17.51
2017-08-11T18:59:41.711Z,17.52
2017-08-11T19:02:09.108Z,17.47
2017-08-11T19:04:36.519Z,17.47
2017-08-11T19:07:03.918Z,17.48
2017-08-11T19:09:31.316Z,17.50
2017-08-11T19:11:58.731Z,17.50
2017-08-11T19:14:26.127Z,17.50
2017-08-11T19:16:53.530Z,17.48
2017-08-11T19:19:20.939Z,17.47
2017-08-11T19:21:48.347Z,17.47
2017-08-11T19:24:15.743Z,17.50
2017-08-11T19:26:43.153Z,17.49
2017-08-11T19:29:10.551Z,17.48
2017-08-11T19:31:37.951Z,17.49
2017-08-11T19:34:05.371Z,17.53
2017-08-11T19:36:32.774Z,17.49
2017-08-11T19:39:00.171Z,17.48
2017-08-11T19:41:27.587Z,17.42
2017-08-11T19:43:54.983Z,17.38
2017-08-11T19:46:22.378Z,17.35
2017-08-11T19:48:49.786Z,17.36
2017-08-11T19:51:17.204Z,17.35
2017-08-11T19:53:44.608Z,17.34
2017-08-11T19:56:12.029Z,17.31
2017-08-11T19:58:39.427Z,17.31
2017-08-11T20:01:06.827Z,17.29
2017-08-11T20:03:34.243Z,17.28
2017-08-11T20:06:01.653Z,17.29
2017-08-11T20:08:29.050Z,17.29
2017-08-11T20:10:56.464Z,17.30
2017-08-11T20:13:23.865Z,17.32
2017-08-11T20:15:51.269Z,17.28
2017-08-11T20:18:18.696Z,17.26
2017-08-11T20:20:46.094Z,17.28
2017-08-11T20:23:13.492Z,17.30
2017-08-11T20:25:40.908Z,17.32
2017-08-11T20:28:08.308Z,17.34
2017-08-11T20:30:35.714Z,17.29
2017-08-11T20:33:03.396Z,17.28
2017-08-11T20:35:30.795Z,17.27
2017-08-11T20:37:58.218Z,17.26
2017-08-11T20:40:25.624Z,17.24
2017-08-11T20:42:53.017Z,17.25
2017-08-11T20:45:20.422Z,17.25
2017-08-11T20:47:47.865Z,17.24
2017-08-11T20:50:15.266Z,17.23
2017-08-11T20:52:42.662Z,17.21
2017-08-11T20:55:10.084Z,17.22
2017-08-11T20:57:37.499Z,17.25
2017-08-11T21:00:04.900Z,17.24
2017-08-11T21:02:32.330Z,17.24
2017-08-11T21:04:59.736Z,17.26
2017-08-11T21:07:27.136Z,17.32
2017-08-11T21:09:54.547Z,17.29
2017-08-11T21:12:21.963Z,17.23
2017-08-11T21:14:49.360Z,17.18
2017-08-11T21:17:16.782Z,17.19
2017-08-11T21:19:44.191Z,17.11
2017-08-11T21:22:11.591Z,17.14
2017-08-11T21:24:39.020Z,17.19
2017-08-11T21:27:06.423Z,17.14
2017-08-11T21:29:34.014Z,17.10
2017-08-11T21:32:01.424Z,17.10
2017-08-11T21:34:28.815Z,17.08
2017-08-11T21:36:56.254Z,17.04
2017-08-11T21:39:23.651Z,17.06
2017-08-11T21:41:51.063Z,17.02
2017-08-11T21:44:18.446Z,17.04
2017-08-11T21:46:45.879Z,17.02
2017-08-11T21:49:13.315Z,17.02
2017-08-11T21:51:40.720Z,17.00
2017-08-11T21:54:08.151Z,17.04
2017-08-11T21:56:35.588Z,17.01
2017-08-11T21:59:02.994Z,16.99
2017-08-11T22:01:30.415Z,17.01
2017-08-11T22:03:57.835Z,17.03
2017-08-11T22:06:25.265Z,16.99
2017-08-11T22:08:52.671Z,16.97
2017-08-11T22:11:20.098Z,16.96
2017-08-11T22:13:47.505Z,16.99
2017-08-11T22:16:14.930Z,16.95
2017-08-11T22:18:42.343Z,16.93
2017-08-11T22:21:09.735Z,16.94
2017-08-11T22:23:37.156Z,16.92
2017-08-11T22:26:04.558Z,16.93
2017-08-11T22:28:31.999Z,16.92
2017-08-11T22:30:59.432Z,16.92
2017-08-11T22:33:26.838Z,16.91
2017-08-11T22:35:54.266Z,16.90
2017-08-11T22:38:21.683Z,16.91
2017-08-11T22:40:49.088Z,16.92
2017-08-11T22:43:16.499Z,16.95
2017-08-11T22:45:43.962Z,16.97
2017-08-11T22:48:11.371Z,16.94
2017-08-11T22:50:38.770Z,16.98
2017-08-11T22:53:06.200Z,17.02
2017-08-11T22:55:33.925Z,17.01
2017-08-11T22:58:01.315Z,16.98
2017-08-11T23:00:28.730Z,16.99
2017-08-11T23:02:56.163Z,16.85
2017-08-11T23:05:23.594Z,16.79
2017-08-11T23:07:51.006Z,16.76
2017-08-11T23:10:18.425Z,16.75
2017-08-11T23:12:45.819Z,16.75
2017-08-11T23:15:13.255Z,16.74
2017-08-11T23:17:40.655Z,16.76
2017-08-11T23:20:08.063Z,16.79
2017-08-11T23:22:35.480Z,16.85
2017-08-11T23:25:02.884Z,16.89
2017-08-11T23:27:30.279Z,16.92
2017-08-11T23:29:57.707Z,16.85
2017-08-11T23:32:25.111Z,16.83
2017-08-11T23:34:52.511Z,16.85
2017-08-11T23:37:19.923Z,16.81
2017-08-11T23:39:47.332Z,16.77
2017-08-11T23:42:14.731Z,16.77
2017-08-11T23:44:42.151Z,16.77
2017-08-11T23:47:09.550Z,16.79
2017-08-11T23:49:36.948Z,16.79
2017-08-11T23:52:04.396Z,16.70
2017-08-11T23:54:31.799Z,16.68
2017-08-11T23:56:59.226Z,16.71
2017-08-11T23:59:26.647Z,16.74
